Blanche, Louisiana
Current Conditions -  °F | °C
As of 10:15 AM on Monday 22 Dec 2014 (Local Time) from KACP Reporting Station
Haze Haze  
Wind Chill: 58°   Ceiling: 100
Heat Index: 58°   Visibility: 1.2mi
Dew Point: 56°   Wind: 3mph
Humidity: 96%   Direction: 210°SSW
Pressure: 29.79"   Gusts: NA
Location:  30.9922°N, 92.6266°W
Report Text: KACP 221615Z AUTO 21003KT 1 1/4SM BR OVC001 14/14 A2979 RMK AO2 LTG DSNT E T01420136
Loading
Personal Weather Stations






























Interactive Weather Map New forecast layout! Learn more

10-Day Weather Forecast

Advertisements
Track Severe Weather on mobile